Terminal Aerodrome Forecast
Issued by NWS

Home | Current Version | Previous Version | Text Only | Print | Product List | Glossary On
Versions: 1 2 3 4 5 6 7 8 9 10 11 12 13 14 15 16 17
000
FTUS44 KMAF 291100
TAFPEQ
TAF
KPEQ 291122Z 2912/3012 32011KT P6SM BKN250
     FM291600 02015G24KT P6SM SCT070 BKN200
     FM292000 05014G22KT P6SM OVC070=

USA.gov is the U.S. government's official web portal to all federal, state and local government web resources and services.